sensor_id;sensor_type;location;lat;lon;timestamp;pressure;altitude;pressure_sealevel;temperature;humidity
25526;BME280;13424;48.424;11.258;2024-01-07T00:01:35;94779.78;;;7.54;74.31
25526;BME280;13424;48.424;11.258;2024-01-07T00:04:01;94769.75;;;7.90;73.49
25526;BME280;13424;48.424;11.258;2024-01-07T00:06:27;94771.13;;;7.76;73.33
25526;BME280;13424;48.424;11.258;2024-01-07T00:08:53;94776.09;;;7.10;74.93
25526;BME280;13424;48.424;11.258;2024-01-07T00:11:19;94788.09;;;7.75;73.95
25526;BME280;13424;48.424;11.258;2024-01-07T00:13:46;94779.53;;;7.90;72.31
25526;BME280;13424;48.424;11.258;2024-01-07T00:16:12;94780.81;;;7.37;74.40
25526;BME280;13424;48.424;11.258;2024-01-07T00:18:38;94785.91;;;7.89;73.25
25526;BME280;13424;48.424;11.258;2024-01-07T00:21:04;94782.09;;;7.34;74.38
25526;BME280;13424;48.424;11.258;2024-01-07T00:23:40;94779.56;;;8.06;71.78
25526;BME280;13424;48.424;11.258;2024-01-07T00:26:07;94775.63;;;7.59;72.65
25526;BME280;13424;48.424;11.258;2024-01-07T00:28:33;94773.78;;;7.76;73.14
25526;BME280;13424;48.424;11.258;2024-01-07T00:30:59;94769.41;;;7.53;72.87
25526;BME280;13424;48.424;11.258;2024-01-07T00:33:25;94778.97;;;7.09;74.66
25526;BME280;13424;48.424;11.258;2024-01-07T00:35:51;94776.75;;;7.63;72.86
25526;BME280;13424;48.424;11.258;2024-01-07T00:38:17;94769.03;;;7.16;73.75
25526;BME280;13424;48.424;11.258;2024-01-07T00:40:43;94769.44;;;7.70;72.94
25526;BME280;13424;48.424;11.258;2024-01-07T00:43:10;94774.13;;;6.77;76.14
25526;BME280;13424;48.424;11.258;2024-01-07T00:45:36;94767.56;;;7.70;73.07
25526;BME280;13424;48.424;11.258;2024-01-07T00:48:02;94772.34;;;6.94;75.27
25526;BME280;13424;48.424;11.258;2024-01-07T00:50:28;94774.06;;;7.00;74.67
25526;BME280;13424;48.424;11.258;2024-01-07T00:52:54;94772.22;;;6.61;75.53
25526;BME280;13424;48.424;11.258;2024-01-07T00:55:20;94773.19;;;6.83;76.75
25526;BME280;13424;48.424;11.258;2024-01-07T00:57:48;94767.66;;;7.75;73.76
25526;BME280;13424;48.424;11.258;2024-01-07T01:00:14;94770.31;;;7.13;74.76
25526;BME280;13424;48.424;11.258;2024-01-07T01:02:40;94772.38;;;7.56;74.21
25526;BME280;13424;48.424;11.258;2024-01-07T01:05:07;94780.47;;;7.33;73.49
25526;BME280;13424;48.424;11.258;2024-01-07T01:07:33;94773.47;;;6.70;76.98
25526;BME280;13424;48.424;11.258;2024-01-07T01:09:59;94783.81;;;7.12;75.80
25526;BME280;13424;48.424;11.258;2024-01-07T01:12:25;94778.44;;;7.52;75.02
25526;BME280;13424;48.424;11.258;2024-01-07T01:14:52;94782.53;;;7.60;74.23
25526;BME280;13424;48.424;11.258;2024-01-07T01:17:18;94780.69;;;7.77;73.35
25526;BME280;13424;48.424;11.258;2024-01-07T01:19:44;94779.69;;;7.49;74.93
25526;BME280;13424;48.424;11.258;2024-01-07T01:22:10;94783.03;;;7.11;76.04
25526;BME280;13424;48.424;11.258;2024-01-07T01:24:36;94783.25;;;7.55;75.19
25526;BME280;13424;48.424;11.258;2024-01-07T01:27:02;94779.22;;;7.52;75.12
25526;BME280;13424;48.424;11.258;2024-01-07T01:29:28;94774.31;;;6.59;78.63
25526;BME280;13424;48.424;11.258;2024-01-07T01:31:54;94782.97;;;5.72;81.77
25526;BME280;13424;48.424;11.258;2024-01-07T01:34:20;94779.13;;;6.62;76.87
25526;BME280;13424;48.424;11.258;2024-01-07T01:36:46;94785.16;;;6.86;77.92
25526;BME280;13424;48.424;11.258;2024-01-07T01:39:12;94781.78;;;7.81;73.91
25526;BME280;13424;48.424;11.258;2024-01-07T01:41:39;94777.81;;;6.88;77.60
25526;BME280;13424;48.424;11.258;2024-01-07T01:44:05;94784.28;;;7.37;76.27
25526;BME280;13424;48.424;11.258;2024-01-07T01:46:32;94785.47;;;7.30;76.87
25526;BME280;13424;48.424;11.258;2024-01-07T01:49:45;94783.13;;;7.33;76.82
25526;BME280;13424;48.424;11.258;2024-01-07T01:52:12;94778.25;;;5.74;80.60
25526;BME280;13424;48.424;11.258;2024-01-07T01:54:39;94769.53;;;5.62;82.70
25526;BME280;13424;48.424;11.258;2024-01-07T01:57:06;94775.56;;;5.93;81.28
25526;BME280;13424;48.424;11.258;2024-01-07T01:59:34;94773.53;;;6.47;79.91
25526;BME280;13424;48.424;11.258;2024-01-07T02:02:04;94766.22;;;6.02;82.44
25526;BME280;13424;48.424;11.258;2024-01-07T02:04:30;94765.47;;;7.10;77.02
25526;BME280;13424;48.424;11.258;2024-01-07T02:07:06;94779.47;;;6.02;80.32
25526;BME280;13424;48.424;11.258;2024-01-07T02:09:32;94768.56;;;6.50;80.71
25526;BME280;13424;48.424;11.258;2024-01-07T02:12:42;94779.88;;;6.46;79.90
25526;BME280;13424;48.424;11.258;2024-01-07T02:15:08;94777.13;;;6.81;78.24
25526;BME280;13424;48.424;11.258;2024-01-07T02:17:34;94767.84;;;6.55;80.41
25526;BME280;13424;48.424;11.258;2024-01-07T02:20:01;94772.97;;;5.74;82.31
25526;BME280;13424;48.424;11.258;2024-01-07T02:22:27;94777.13;;;6.29;79.18
25526;BME280;13424;48.424;11.258;2024-01-07T02:24:53;94775.97;;;7.34;76.73
25526;BME280;13424;48.424;11.258;2024-01-07T02:27:19;94780.81;;;5.69;81.62
25526;BME280;13424;48.424;11.258;2024-01-07T02:29:45;94783.09;;;5.89;79.98
25526;BME280;13424;48.424;11.258;2024-01-07T02:32:11;94774.84;;;7.01;77.43
25526;BME280;13424;48.424;11.258;2024-01-07T02:34:37;94778.03;;;5.64;82.51
25526;BME280;13424;48.424;11.258;2024-01-07T02:37:03;94778.31;;;7.30;76.81
25526;BME280;13424;48.424;11.258;2024-01-07T02:39:29;94782.19;;;6.82;78.25
25526;BME280;13424;48.424;11.258;2024-01-07T02:41:55;94774.78;;;6.56;78.88
25526;BME280;13424;48.424;11.258;2024-01-07T02:44:21;94771.47;;;5.13;84.15
25526;BME280;13424;48.424;11.258;2024-01-07T02:46:47;94770.66;;;7.34;76.65
25526;BME280;13424;48.424;11.258;2024-01-07T02:49:13;94768.72;;;5.73;81.75
25526;BME280;13424;48.424;11.258;2024-01-07T02:51:39;94769.09;;;6.12;80.82
25526;BME280;13424;48.424;11.258;2024-01-07T02:54:05;94763.53;;;6.77;79.07
25526;BME280;13424;48.424;11.258;2024-01-07T02:56:31;94777.91;;;7.21;76.58
25526;BME280;13424;48.424;11.258;2024-01-07T02:58:57;94763.78;;;6.12;80.05
25526;BME280;13424;48.424;11.258;2024-01-07T03:01:23;94765.72;;;6.28;79.88
25526;BME280;13424;48.424;11.258;2024-01-07T03:03:50;94759.72;;;5.51;82.44
25526;BME280;13424;48.424;11.258;2024-01-07T03:06:16;94764.72;;;6.69;78.48
25526;BME280;13424;48.424;11.258;2024-01-07T03:08:43;94764.44;;;5.49;84.30
25526;BME280;13424;48.424;11.258;2024-01-07T03:11:09;94768.53;;;6.62;78.19
25526;BME280;13424;48.424;11.258;2024-01-07T03:14:18;94766.81;;;6.96;76.96
25526;BME280;13424;48.424;11.258;2024-01-07T03:16:47;94768.31;;;6.92;76.60
25526;BME280;13424;48.424;11.258;2024-01-07T03:19:13;94770.88;;;5.76;80.03
25526;BME280;13424;48.424;11.258;2024-01-07T03:21:39;94770.75;;;5.48;81.72
25526;BME280;13424;48.424;11.258;2024-01-07T03:24:05;94777.31;;;6.51;79.69
25526;BME280;13424;48.424;11.258;2024-01-07T03:26:32;94773.31;;;6.88;77.72
25526;BME280;13424;48.424;11.258;2024-01-07T03:29:39;94772.41;;;6.07;80.30
25526;BME280;13424;48.424;11.258;2024-01-07T03:32:05;94764.44;;;6.42;79.48
25526;BME280;13424;48.424;11.258;2024-01-07T03:34:32;94770.72;;;4.46;86.92
25526;BME280;13424;48.424;11.258;2024-01-07T03:36:57;94766.91;;;5.97;81.26
25526;BME280;13424;48.424;11.258;2024-01-07T03:39:23;94770.41;;;5.56;82.22
25526;BME280;13424;48.424;11.258;2024-01-07T03:41:54;94765.06;;;6.73;78.34
25526;BME280;13424;48.424;11.258;2024-01-07T03:44:20;94778.31;;;6.73;77.38
25526;BME280;13424;48.424;11.258;2024-01-07T03:46:46;94778.75;;;6.82;76.20
25526;BME280;13424;48.424;11.258;2024-01-07T03:49:12;94770.38;;;6.73;77.29
25526;BME280;13424;48.424;11.258;2024-01-07T03:51:38;94775.31;;;6.69;77.91
25526;BME280;13424;48.424;11.258;2024-01-07T03:55:13;94785.22;;;7.31;75.12
25526;BME280;13424;48.424;11.258;2024-01-07T03:57:39;94788.88;;;6.21;78.39
25526;BME280;13424;48.424;11.258;2024-01-07T04:00:06;94789.88;;;6.95;76.84
25526;BME280;13424;48.424;11.258;2024-01-07T04:02:32;94786.72;;;6.70;77.18
25526;BME280;13424;48.424;11.258;2024-01-07T04:04:58;94788.66;;;6.34;78.22
25526;BME280;13424;48.424;11.258;2024-01-07T04:07:24;94784.59;;;6.95;76.71
25526;BME280;13424;48.424;11.258;2024-01-07T04:09:50;94788.59;;;6.98;75.87
25526;BME280;13424;48.424;11.258;2024-01-07T04:12:16;94788.44;;;6.01;78.80
25526;BME280;13424;48.424;11.258;2024-01-07T04:14:43;94787.38;;;6.13;79.72
25526;BME280;13424;48.424;11.258;2024-01-07T04:17:09;94795.22;;;6.20;78.23
25526;BME280;13424;48.424;11.258;2024-01-07T04:19:38;94790.75;;;7.01;75.67
25526;BME280;13424;48.424;11.258;2024-01-07T04:22:04;94791.00;;;6.59;76.42
25526;BME280;13424;48.424;11.258;2024-01-07T04:24:30;94800.84;;;6.12;78.06
25526;BME280;13424;48.424;11.258;2024-01-07T04:26:56;94799.88;;;5.83;79.08
25526;BME280;13424;48.424;11.258;2024-01-07T04:29:22;94810.25;;;6.55;77.20
25526;BME280;13424;48.424;11.258;2024-01-07T04:31:48;94800.38;;;6.15;77.59
25526;BME280;13424;48.424;11.258;2024-01-07T04:34:14;94809.47;;;6.94;75.69
25526;BME280;13424;48.424;11.258;2024-01-07T04:36:40;94808.28;;;6.74;75.60
25526;BME280;13424;48.424;11.258;2024-01-07T04:39:07;94813.97;;;6.07;78.70
25526;BME280;13424;48.424;11.258;2024-01-07T04:41:35;94804.88;;;6.26;78.36
25526;BME280;13424;48.424;11.258;2024-01-07T04:44:01;94810.03;;;6.44;77.30
25526;BME280;13424;48.424;11.258;2024-01-07T04:46:34;94807.88;;;5.53;79.78
25526;BME280;13424;48.424;11.258;2024-01-07T04:49:01;94809.91;;;6.51;76.89
25526;BME280;13424;48.424;11.258;2024-01-07T04:55:21;94823.31;;;6.33;77.43
25526;BME280;13424;48.424;11.258;2024-01-07T04:57:47;94817.06;;;5.39;80.86
25526;BME280;13424;48.424;11.258;2024-01-07T05:00:14;94822.47;;;6.56;76.56
25526;BME280;13424;48.424;11.258;2024-01-07T05:02:40;94819.03;;;6.20;77.98
25526;BME280;13424;48.424;11.258;2024-01-07T05:05:08;94825.25;;;6.37;77.76
25526;BME280;13424;48.424;11.258;2024-01-07T05:07:35;94831.13;;;5.21;80.89
25526;BME280;13424;48.424;11.258;2024-01-07T05:10:01;94831.13;;;5.51;81.52
25526;BME280;13424;48.424;11.258;2024-01-07T05:12:27;94833.91;;;6.09;78.65
25526;BME280;13424;48.424;11.258;2024-01-07T05:18:57;94837.50;;;6.90;76.45
25526;BME280;13424;48.424;11.258;2024-01-07T05:21:23;94839.53;;;6.13;77.27
25526;BME280;13424;48.424;11.258;2024-01-07T05:23:49;94843.09;;;7.06;75.05
25526;BME280;13424;48.424;11.258;2024-01-07T05:26:15;94846.31;;;7.08;74.67
25526;BME280;13424;48.424;11.258;2024-01-07T05:28:47;94845.03;;;6.70;75.14
25526;BME280;13424;48.424;11.258;2024-01-07T05:31:19;94841.50;;;6.29;77.35
25526;BME280;13424;48.424;11.258;2024-01-07T05:33:46;94843.22;;;6.99;75.33
25526;BME280;13424;48.424;11.258;2024-01-07T05:36:12;94848.75;;;6.22;76.80
25526;BME280;13424;48.424;11.258;2024-01-07T05:38:38;94846.63;;;6.71;76.23
25526;BME280;13424;48.424;11.258;2024-01-07T05:41:05;94847.06;;;5.74;79.29
25526;BME280;13424;48.424;11.258;2024-01-07T05:43:31;94850.81;;;6.43;76.22
25526;BME280;13424;48.424;11.258;2024-01-07T05:46:45;94861.19;;;6.57;76.16
25526;BME280;13424;48.424;11.258;2024-01-07T05:49:11;94862.81;;;6.34;76.04
25526;BME280;13424;48.424;11.258;2024-01-07T05:51:41;94861.75;;;6.47;76.13
25526;BME280;13424;48.424;11.258;2024-01-07T05:54:07;94863.03;;;6.44;76.02
25526;BME280;13424;48.424;11.258;2024-01-07T05:56:39;94875.13;;;6.29;76.77
25526;BME280;13424;48.424;11.258;2024-01-07T05:59:07;94866.59;;;6.27;75.79
25526;BME280;13424;48.424;11.258;2024-01-07T06:01:33;94871.44;;;6.65;76.15
25526;BME280;13424;48.424;11.258;2024-01-07T06:03:59;94864.28;;;6.30;76.82
25526;BME280;13424;48.424;11.258;2024-01-07T06:10:17;94870.50;;;6.36;76.50
25526;BME280;13424;48.424;11.258;2024-01-07T06:12:43;94881.69;;;6.50;75.47
25526;BME280;13424;48.424;11.258;2024-01-07T06:15:10;94879.03;;;6.26;76.63
25526;BME280;13424;48.424;11.258;2024-01-07T06:17:36;94887.91;;;6.43;76.12
25526;BME280;13424;48.424;11.258;2024-01-07T06:20:02;94885.59;;;6.59;75.53
25526;BME280;13424;48.424;11.258;2024-01-07T06:22:28;94880.88;;;6.49;76.36
25526;BME280;13424;48.424;11.258;2024-01-07T06:24:54;94877.50;;;6.77;75.23
25526;BME280;13424;48.424;11.258;2024-01-07T06:27:23;94890.31;;;6.57;76.08
25526;BME280;13424;48.424;11.258;2024-01-07T06:29:49;94875.34;;;6.39;75.46
25526;BME280;13424;48.424;11.258;2024-01-07T06:32:15;94886.72;;;6.63;75.49
25526;BME280;13424;48.424;11.258;2024-01-07T06:34:41;94885.13;;;6.38;74.72
25526;BME280;13424;48.424;11.258;2024-01-07T06:37:07;94889.13;;;6.06;75.34
25526;BME280;13424;48.424;11.258;2024-01-07T06:39:36;94890.66;;;6.02;76.34
25526;BME280;13424;48.424;11.258;2024-01-07T06:42:02;94885.44;;;5.95;77.56
25526;BME280;13424;48.424;11.258;2024-01-07T06:44:28;94889.84;;;6.13;75.76
25526;BME280;13424;48.424;11.258;2024-01-07T06:46:54;94883.59;;;6.07;75.93
25526;BME280;13424;48.424;11.258;2024-01-07T06:49:20;94894.03;;;6.32;75.83
25526;BME280;13424;48.424;11.258;2024-01-07T06:51:46;94893.19;;;6.20;75.80
25526;BME280;13424;48.424;11.258;2024-01-07T06:54:12;94900.34;;;6.55;75.34
25526;BME280;13424;48.424;11.258;2024-01-07T06:56:38;94900.06;;;5.98;77.91
25526;BME280;13424;48.424;11.258;2024-01-07T06:59:04;94905.97;;;6.11;76.08
25526;BME280;13424;48.424;11.258;2024-01-07T07:01:30;94907.69;;;6.29;75.74
25526;BME280;13424;48.424;11.258;2024-01-07T07:03:56;94910.47;;;6.34;75.72
25526;BME280;13424;48.424;11.258;2024-01-07T07:06:22;94917.69;;;6.15;75.94
25526;BME280;13424;48.424;11.258;2024-01-07T07:08:48;94907.72;;;6.53;76.47
25526;BME280;13424;48.424;11.258;2024-01-07T07:11:15;94913.34;;;6.44;75.44
25526;BME280;13424;48.424;11.258;2024-01-07T07:13:41;94914.00;;;5.75;76.39
25526;BME280;13424;48.424;11.258;2024-01-07T07:16:43;94911.28;;;6.35;76.05
25526;BME280;13424;48.424;11.258;2024-01-07T07:19:08;94927.88;;;6.65;75.15
25526;BME280;13424;48.424;11.258;2024-01-07T07:21:40;94927.16;;;5.03;79.53
25526;BME280;13424;48.424;11.258;2024-01-07T07:24:06;94934.88;;;6.36;76.30
25526;BME280;13424;48.424;11.258;2024-01-07T07:26:32;94936.09;;;5.99;76.81
25526;BME280;13424;48.424;11.258;2024-01-07T07:28:59;94937.59;;;6.06;76.04
25526;BME280;13424;48.424;11.258;2024-01-07T07:31:26;94938.91;;;6.27;76.53
25526;BME280;13424;48.424;11.258;2024-01-07T07:33:52;94953.53;;;5.88;77.17
25526;BME280;13424;48.424;11.258;2024-01-07T07:36:18;94942.66;;;6.08;77.24
25526;BME280;13424;48.424;11.258;2024-01-07T07:38:44;94952.50;;;6.31;76.75
25526;BME280;13424;48.424;11.258;2024-01-07T07:41:10;94953.25;;;6.08;76.50
25526;BME280;13424;48.424;11.258;2024-01-07T07:43:36;94949.50;;;5.85;76.87
25526;BME280;13424;48.424;11.258;2024-01-07T07:46:02;94954.59;;;6.76;74.11
25526;BME280;13424;48.424;11.258;2024-01-07T07:48:29;94950.31;;;6.63;74.53
25526;BME280;13424;48.424;11.258;2024-01-07T07:50:55;94964.03;;;4.98;80.38
25526;BME280;13424;48.424;11.258;2024-01-07T07:53:21;94962.84;;;6.09;76.74
25526;BME280;13424;48.424;11.258;2024-01-07T07:55:47;94963.44;;;6.34;75.08
25526;BME280;13424;48.424;11.258;2024-01-07T07:58:13;94966.88;;;6.23;75.95
25526;BME280;13424;48.424;11.258;2024-01-07T08:00:39;94966.63;;;6.13;76.16
25526;BME280;13424;48.424;11.258;2024-01-07T08:03:05;94968.19;;;6.44;75.39
25526;BME280;13424;48.424;11.258;2024-01-07T08:05:32;94966.47;;;6.50;75.46
25526;BME280;13424;48.424;11.258;2024-01-07T08:07:58;94972.84;;;5.88;76.25
25526;BME280;13424;48.424;11.258;2024-01-07T08:10:24;94984.34;;;6.01;76.89
25526;BME280;13424;48.424;11.258;2024-01-07T08:12:50;94986.41;;;5.80;76.84
25526;BME280;13424;48.424;11.258;2024-01-07T08:15:16;94984.69;;;6.04;76.73
25526;BME280;13424;48.424;11.258;2024-01-07T08:17:45;94989.41;;;6.14;76.13
25526;BME280;13424;48.424;11.258;2024-01-07T08:20:12;94986.53;;;6.15;76.08
25526;BME280;13424;48.424;11.258;2024-01-07T08:22:38;94989.97;;;6.04;75.97
25526;BME280;13424;48.424;11.258;2024-01-07T08:25:04;94996.03;;;6.47;75.12
25526;BME280;13424;48.424;11.258;2024-01-07T08:27:30;95000.06;;;6.37;74.99
25526;BME280;13424;48.424;11.258;2024-01-07T08:29:58;94992.69;;;6.39;75.01
25526;BME280;13424;48.424;11.258;2024-01-07T08:32:24;95006.00;;;6.75;74.39
25526;BME280;13424;48.424;11.258;2024-01-07T08:34:50;95000.38;;;6.18;75.75
25526;BME280;13424;48.424;11.258;2024-01-07T08:37:16;95001.84;;;6.02;76.58
25526;BME280;13424;48.424;11.258;2024-01-07T08:39:42;95000.66;;;5.98;76.30
25526;BME280;13424;48.424;11.258;2024-01-07T08:42:08;95004.53;;;5.65;76.89
25526;BME280;13424;48.424;11.258;2024-01-07T08:44:34;95002.84;;;6.42;74.66
25526;BME280;13424;48.424;11.258;2024-01-07T08:47:01;95018.31;;;5.85;76.15
25526;BME280;13424;48.424;11.258;2024-01-07T08:49:31;95022.88;;;5.78;76.00
25526;BME280;13424;48.424;11.258;2024-01-07T08:51:59;95011.31;;;6.21;75.79
25526;BME280;13424;48.424;11.258;2024-01-07T08:54:25;95026.13;;;5.44;77.46
25526;BME280;13424;48.424;11.258;2024-01-07T08:56:51;95029.22;;;5.59;77.84
25526;BME280;13424;48.424;11.258;2024-01-07T08:59:17;95025.81;;;4.97;79.78
25526;BME280;13424;48.424;11.258;2024-01-07T09:01:43;95030.75;;;4.93;79.93
25526;BME280;13424;48.424;11.258;2024-01-07T09:04:09;95028.56;;;5.09;80.63
25526;BME280;13424;48.424;11.258;2024-01-07T09:06:35;95025.38;;;5.92;76.26
25526;BME280;13424;48.424;11.258;2024-01-07T09:09:01;95035.06;;;5.79;75.67
25526;BME280;13424;48.424;11.258;2024-01-07T09:11:27;95045.81;;;5.66;76.85
25526;BME280;13424;48.424;11.258;2024-01-07T09:13:53;95052.00;;;5.60;76.40
25526;BME280;13424;48.424;11.258;2024-01-07T09:16:19;95040.09;;;5.69;76.53
25526;BME280;13424;48.424;11.258;2024-01-07T09:18:45;95050.47;;;5.71;76.19
25526;BME280;13424;48.424;11.258;2024-01-07T09:21:12;95057.13;;;5.73;75.47
25526;BME280;13424;48.424;11.258;2024-01-07T09:23:38;95048.44;;;5.84;75.82
25526;BME280;13424;48.424;11.258;2024-01-07T09:26:05;95047.59;;;5.54;76.48
25526;BME280;13424;48.424;11.258;2024-01-07T09:28:31;95051.56;;;5.26;77.70
25526;BME280;13424;48.424;11.258;2024-01-07T09:30:57;95048.78;;;4.22;82.24
25526;BME280;13424;48.424;11.258;2024-01-07T09:33:23;95049.97;;;4.82;80.30
25526;BME280;13424;48.424;11.258;2024-01-07T09:35:52;95057.78;;;5.69;76.09
25526;BME280;13424;48.424;11.258;2024-01-07T09:38:20;95052.84;;;4.49;80.16
25526;BME280;13424;48.424;11.258;2024-01-07T09:40:49;95050.22;;;5.36;76.61
25526;BME280;13424;48.424;11.258;2024-01-07T09:43:16;95050.91;;;5.49;76.46
25526;BME280;13424;48.424;11.258;2024-01-07T09:45:54;95058.31;;;5.41;77.62
25526;BME280;13424;48.424;11.258;2024-01-07T09:48:22;95057.81;;;4.39;79.49
25526;BME280;13424;48.424;11.258;2024-01-07T09:50:52;95064.66;;;4.71;78.94
25526;BME280;13424;48.424;11.258;2024-01-07T09:53:20;95053.38;;;4.33;80.69
25526;BME280;13424;48.424;11.258;2024-01-07T09:56:21;95063.09;;;4.01;80.14
25526;BME280;13424;48.424;11.258;2024-01-07T09:58:48;95071.34;;;4.49;81.07
25526;BME280;13424;48.424;11.258;2024-01-07T10:01:18;95063.97;;;4.83;79.36
25526;BME280;13424;48.424;11.258;2024-01-07T10:03:45;95063.75;;;4.59;78.46
25526;BME280;13424;48.424;11.258;2024-01-07T10:06:18;95069.06;;;5.64;76.01
25526;BME280;13424;48.424;11.258;2024-01-07T10:08:45;95062.81;;;5.22;77.82
25526;BME280;13424;48.424;11.258;2024-01-07T10:11:15;95065.53;;;5.70;74.87
25526;BME280;13424;48.424;11.258;2024-01-07T10:13:41;95063.09;;;5.32;76.16
25526;BME280;13424;48.424;11.258;2024-01-07T10:16:08;95069.78;;;5.53;75.97
25526;BME280;13424;48.424;11.258;2024-01-07T10:18:34;95062.66;;;6.20;73.63
25526;BME280;13424;48.424;11.258;2024-01-07T10:21:06;95072.88;;;5.50;75.66
25526;BME280;13424;48.424;11.258;2024-01-07T10:23:32;95066.19;;;4.29;78.62
25526;BME280;13424;48.424;11.258;2024-01-07T10:25:58;95074.84;;;5.73;76.08
25526;BME280;13424;48.424;11.258;2024-01-07T10:28:24;95071.09;;;5.80;74.46
25526;BME280;13424;48.424;11.258;2024-01-07T10:30:51;95073.22;;;5.90;74.01
25526;BME280;13424;48.424;11.258;2024-01-07T10:33:18;95072.53;;;6.13;73.98
25526;BME280;13424;48.424;11.258;2024-01-07T10:36:06;95070.94;;;6.12;73.52
25526;BME280;13424;48.424;11.258;2024-01-07T10:38:33;95074.03;;;5.72;75.14
25526;BME280;13424;48.424;11.258;2024-01-07T10:41:02;95069.00;;;6.19;73.23
25526;BME280;13424;48.424;11.258;2024-01-07T10:43:40;95079.34;;;5.91;73.38
25526;BME280;13424;48.424;11.258;2024-01-07T10:46:09;95079.47;;;5.41;74.48
25526;BME280;13424;48.424;11.258;2024-01-07T10:48:38;95085.28;;;5.31;74.67
25526;BME280;13424;48.424;11.258;2024-01-07T10:51:10;95085.22;;;5.74;74.21
25526;BME280;13424;48.424;11.258;2024-01-07T10:53:39;95081.09;;;5.60;74.92
25526;BME280;13424;48.424;11.258;2024-01-07T10:56:11;95075.97;;;5.47;74.00
25526;BME280;13424;48.424;11.258;2024-01-07T10:58:40;95087.94;;;4.81;76.09
25526;BME280;13424;48.424;11.258;2024-01-07T11:01:07;95079.19;;;5.49;75.71
25526;BME280;13424;48.424;11.258;2024-01-07T11:10:02;95081.16;;;5.17;75.78
25526;BME280;13424;48.424;11.258;2024-01-07T11:12:32;95083.16;;;5.40;75.64
25526;BME280;13424;48.424;11.258;2024-01-07T11:14:59;95079.63;;;5.64;74.12
25526;BME280;13424;48.424;11.258;2024-01-07T11:17:41;95074.19;;;3.78;80.05
25526;BME280;13424;48.424;11.258;2024-01-07T11:20:30;95086.59;;;5.58;75.69
25526;BME280;13424;48.424;11.258;2024-01-07T11:24:00;95080.44;;;5.65;74.86
25526;BME280;13424;48.424;11.258;2024-01-07T11:26:29;95072.63;;;4.40;78.33
25526;BME280;13424;48.424;11.258;2024-01-07T11:28:57;95082.47;;;4.83;76.76
25526;BME280;13424;48.424;11.258;2024-01-07T11:31:49;95083.75;;;4.98;75.83
25526;BME280;13424;48.424;11.258;2024-01-07T11:34:44;95087.75;;;5.26;75.43
25526;BME280;13424;48.424;11.258;2024-01-07T11:37:15;95076.53;;;4.31;79.79
25526;BME280;13424;48.424;11.258;2024-01-07T11:39:46;95074.28;;;4.34;78.58
25526;BME280;13424;48.424;11.258;2024-01-07T11:42:13;95081.47;;;4.20;80.50
25526;BME280;13424;48.424;11.258;2024-01-07T11:44:53;95081.97;;;4.92;76.01
25526;BME280;13424;48.424;11.258;2024-01-07T11:47:22;95084.09;;;4.27;78.51
25526;BME280;13424;48.424;11.258;2024-01-07T11:49:49;95075.75;;;4.55;77.80
25526;BME280;13424;48.424;11.258;2024-01-07T11:52:15;95087.94;;;5.49;74.21
25526;BME280;13424;48.424;11.258;2024-01-07T11:54:48;95092.34;;;5.55;74.91
25526;BME280;13424;48.424;11.258;2024-01-07T11:57:14;95091.22;;;4.27;77.53
25526;BME280;13424;48.424;11.258;2024-01-07T11:59:40;95091.97;;;5.33;75.27
25526;BME280;13424;48.424;11.258;2024-01-07T12:02:12;95092.69;;;5.22;75.75
25526;BME280;13424;48.424;11.258;2024-01-07T12:04:38;95097.97;;;4.72;77.78
25526;BME280;13424;48.424;11.258;2024-01-07T12:07:04;95094.47;;;4.79;76.84
25526;BME280;13424;48.424;11.258;2024-01-07T12:09:31;95092.28;;;4.75;77.46
25526;BME280;13424;48.424;11.258;2024-01-07T12:11:57;95098.59;;;4.99;75.63
25526;BME280;13424;48.424;11.258;2024-01-07T12:14:23;95098.53;;;5.06;74.58
25526;BME280;13424;48.424;11.258;2024-01-07T12:16:50;95102.84;;;4.75;75.80
25526;BME280;13424;48.424;11.258;2024-01-07T12:19:16;95101.91;;;4.88;75.99
25526;BME280;13424;48.424;11.258;2024-01-07T12:21:42;95101.00;;;5.01;76.49
25526;BME280;13424;48.424;11.258;2024-01-07T12:24:08;95108.63;;;4.91;76.89
25526;BME280;13424;48.424;11.258;2024-01-07T12:26:35;95110.25;;;4.92;75.80
25526;BME280;13424;48.424;11.258;2024-01-07T12:29:04;95111.47;;;4.89;76.93
25526;BME280;13424;48.424;11.258;2024-01-07T12:31:35;95101.31;;;4.61;76.34
25526;BME280;13424;48.424;11.258;2024-01-07T12:34:12;95116.94;;;4.94;75.89
25526;BME280;13424;48.424;11.258;2024-01-07T12:36:38;95112.56;;;4.50;76.23
25526;BME280;13424;48.424;11.258;2024-01-07T12:43:00;95117.47;;;4.78;75.57
25526;BME280;13424;48.424;11.258;2024-01-07T12:45:26;95125.19;;;5.29;75.12
25526;BME280;13424;48.424;11.258;2024-01-07T12:47:52;95123.38;;;4.73;76.06
25526;BME280;13424;48.424;11.258;2024-01-07T12:50:20;95126.81;;;5.49;74.41
25526;BME280;13424;48.424;11.258;2024-01-07T12:52:49;95125.34;;;5.10;75.12
25526;BME280;13424;48.424;11.258;2024-01-07T12:55:49;95127.00;;;5.04;74.33
25526;BME280;13424;48.424;11.258;2024-01-07T12:58:16;95132.94;;;5.24;75.21
25526;BME280;13424;48.424;11.258;2024-01-07T13:00:43;95129.59;;;4.86;75.55
25526;BME280;13424;48.424;11.258;2024-01-07T13:03:10;95137.25;;;4.94;75.11
25526;BME280;13424;48.424;11.258;2024-01-07T13:05:47;95128.31;;;4.95;74.85
25526;BME280;13424;48.424;11.258;2024-01-07T13:08:18;95153.50;;;5.22;75.12
25526;BME280;13424;48.424;11.258;2024-01-07T13:12:00;95147.97;;;5.06;74.96
25526;BME280;13424;48.424;11.258;2024-01-07T13:14:26;95155.19;;;4.60;75.72
25526;BME280;13424;48.424;11.258;2024-01-07T13:16:52;95157.94;;;4.34;76.59
25526;BME280;13424;48.424;11.258;2024-01-07T13:19:33;95149.94;;;4.85;75.71
25526;BME280;13424;48.424;11.258;2024-01-07T13:21:59;95151.81;;;5.03;74.81
25526;BME280;13424;48.424;11.258;2024-01-07T13:24:27;95150.19;;;4.45;76.49
25526;BME280;13424;48.424;11.258;2024-01-07T13:26:53;95165.81;;;4.79;74.60
25526;BME280;13424;48.424;11.258;2024-01-07T13:29:20;95171.19;;;4.65;75.02
25526;BME280;13424;48.424;11.258;2024-01-07T13:31:46;95169.56;;;4.64;75.35